Time;durP1;ratioP1;P1;durP2;ratioP2;P2;SDS_P1;SDS_P2;PMS_P1;PMS_P2;Temp;Humidity;BMP_temperature;BMP_pressure;BME280_temperature;BME280_humidity;BME280_pressure;Samples;Min_cycle;Max_cycle;Signal;HPM_P1;HPM_P2
2021/09/22 00:00:08;;;;;;;;;;;;;;;11.97;81.67;100291.22;5013127;28;807;-60
2021/09/22 00:02:35;;;;;;;;;;;;;;;11.96;82.22;100289.66;5012758;28;855;-60
2021/09/22 00:05:01;;;;;;;;;;;;;;;11.95;81.81;100277.78;5012831;28;803;-60
2021/09/22 00:07:28;;;;;;;;;;;;;;;11.93;82.18;100274.63;4995290;28;1137;-60
2021/09/22 00:09:56;;;;;;;;;;;;;;;11.93;82.08;100273.84;5012816;28;874;-60
2021/09/22 00:12:23;;;;;;;;;;;;;;;11.94;81.82;100270.66;5012735;28;831;-60
2021/09/22 00:14:49;;;;;;;;;;;;;;;12.02;81.10;100268.66;5012624;28;1890;-60
2021/09/22 00:17:17;;;;;;;;;;;;;;;12.02;81.26;100269.44;5012688;28;807;-60
2021/09/22 00:19:44;;;;;;;;;;;;;;;12.00;80.96;100269.06;5012558;28;863;-60
2021/09/22 00:22:11;;;;;;;;;;;;;;;11.97;81.02;100274.59;5012592;28;807;-60
2021/09/22 00:24:38;;;;;;;;;;;;;;;11.93;81.52;100268.31;5012631;28;819;-60
2021/09/22 00:27:04;;;;;;;;;;;;;;;11.89;81.79;100262.00;5012584;28;827;-60
2021/09/22 00:29:31;;;;;;;;;;;;;;;11.87;81.90;100254.03;5012414;28;800;-60
2021/09/22 00:31:58;;;;;;;;;;;;;;;11.85;81.60;100257.22;5012364;28;866;-60
2021/09/22 00:34:24;;;;;;;;;;;;;;;11.83;82.10;100256.81;5012254;28;1966;-59
2021/09/22 00:36:51;;;;;;;;;;;;;;;11.81;81.85;100250.88;4994716;28;1581;-59
2021/09/22 00:39:18;;;;;;;;;;;;;;;11.81;81.92;100256.41;4994665;28;1339;-60
2021/09/22 00:41:44;;;;;;;;;;;;;;;11.82;82.52;100248.91;5012045;28;953;-59
2021/09/22 00:44:11;;;;;;;;;;;;;;;11.83;81.97;100253.25;5012250;28;917;-59
2021/09/22 00:46:36;;;;;;;;;;;;;;;11.85;81.90;100256.41;5012158;28;906;-60
2021/09/22 00:49:03;;;;;;;;;;;;;;;11.84;82.17;100247.34;5012158;28;893;-59
2021/09/22 00:51:29;;;;;;;;;;;;;;;11.85;82.13;100256.41;5012169;28;863;-60
2021/09/22 00:53:56;;;;;;;;;;;;;;;11.83;81.96;100250.50;5012020;28;1459;-59
2021/09/22 00:56:23;;;;;;;;;;;;;;;11.83;81.76;100258.81;5012010;28;1918;-60
2021/09/22 00:58:49;;;;;;;;;;;;;;;11.84;81.95;100254.81;5011984;28;855;-60
2021/09/22 01:01:17;;;;;;;;;;;;;;;11.89;81.41;100262.78;4994278;28;1288;-60
2021/09/22 01:03:44;;;;;;;;;;;;;;;11.95;81.02;100254.81;5011865;28;843;-60
2021/09/22 01:06:13;;;;;;;;;;;;;;;11.99;81.02;100261.97;5012145;28;874;-59
2021/09/22 01:08:40;;;;;;;;;;;;;;;12.01;80.11;100265.13;5011840;28;883;-60
2021/09/22 01:11:07;;;;;;;;;;;;;;;12.05;79.77;100262.31;5011883;28;807;-60
2021/09/22 01:13:33;;;;;;;;;;;;;;;12.08;79.33;100261.53;5011852;28;808;-60
2021/09/22 01:16:00;;;;;;;;;;;;;;;12.10;79.13;100261.09;5011789;28;1922;-60
2021/09/22 01:18:26;;;;;;;;;;;;;;;12.11;78.76;100260.72;5011827;28;858;-60
2021/09/22 01:20:54;;;;;;;;;;;;;;;12.13;77.94;100265.84;5011743;28;812;-60
2021/09/22 01:23:21;;;;;;;;;;;;;;;12.18;77.67;100262.66;5011734;28;866;-60
2021/09/22 01:25:49;;;;;;;;;;;;;;;12.22;77.47;100252.34;5011724;28;839;-60
2021/09/22 01:28:17;;;;;;;;;;;;;;;12.24;77.87;100255.50;5011682;28;840;-60
2021/09/22 01:30:44;;;;;;;;;;;;;;;12.23;78.07;100248.41;5011496;28;859;-60
2021/09/22 01:33:12;;;;;;;;;;;;;;;12.25;77.62;100255.13;5011726;28;889;-60
2021/09/22 01:35:40;;;;;;;;;;;;;;;12.28;77.04;100266.59;5011814;28;1953;-60
2021/09/22 01:38:11;;;;;;;;;;;;;;;12.29;76.88;100263.44;5011627;28;849;-60
2021/09/22 01:40:37;;;;;;;;;;;;;;;12.30;76.60;100262.22;5011612;28;803;-60
2021/09/22 01:43:07;;;;;;;;;;;;;;;12.31;76.77;100263.81;5011592;28;881;-59
2021/09/22 01:45:34;;;;;;;;;;;;;;;12.33;76.67;100257.84;5011529;28;902;-60
2021/09/22 01:48:04;;;;;;;;;;;;;;;12.33;76.96;100255.88;5011811;28;960;-60
2021/09/22 01:50:31;;;;;;;;;;;;;;;12.29;77.24;100252.34;5011524;28;866;-60
2021/09/22 01:52:57;;;;;;;;;;;;;;;12.25;77.28;100257.88;4993836;28;1244;-60
2021/09/22 01:55:24;;;;;;;;;;;;;;;12.21;77.62;100256.31;5012142;28;1917;-60
2021/09/22 01:57:50;;;;;;;;;;;;;;;12.19;77.34;100250.41;5013990;28;1220;-60
2021/09/22 02:00:18;;;;;;;;;;;;;;;12.17;77.43;100244.47;5015108;28;838;-60
2021/09/22 02:02:44;;;;;;;;;;;;;;;12.15;77.72;100231.00;5015164;28;818;-60
2021/09/22 02:05:11;;;;;;;;;;;;;;;12.15;77.64;100249.63;5015212;28;900;-60
2021/09/22 02:07:37;;;;;;;;;;;;;;;12.15;77.58;100241.31;5015048;28;804;-59
2021/09/22 02:10:05;;;;;;;;;;;;;;;12.15;77.53;100241.31;5015099;28;894;-60
2021/09/22 02:12:32;;;;;;;;;;;;;;;12.14;77.44;100240.53;5015026;28;861;-60
2021/09/22 02:14:59;;;;;;;;;;;;;;;12.16;76.88;100240.09;5014841;28;1902;-60
2021/09/22 02:17:26;;;;;;;;;;;;;;;12.16;76.63;100237.34;5014941;28;838;-60
2021/09/22 02:19:52;;;;;;;;;;;;;;;12.15;75.35;100238.53;5014917;28;806;-60
2021/09/22 02:22:18;;;;;;;;;;;;;;;12.15;75.92;100236.56;5014827;28;830;-60
2021/09/22 02:24:45;;;;;;;;;;;;;;;12.16;76.07;100242.88;5014758;28;866;-60
2021/09/22 02:27:13;;;;;;;;;;;;;;;12.16;75.83;100240.09;5013462;28;1389;-59
2021/09/22 02:29:40;;;;;;;;;;;;;;;12.18;75.41;100230.22;5014562;28;887;-59
2021/09/22 02:32:07;;;;;;;;;;;;;;;12.21;75.09;100223.06;5014715;28;830;-60
2021/09/22 02:34:35;;;;;;;;;;;;;;;12.24;75.13;100222.25;5013247;28;1902;-60
2021/09/22 02:37:02;;;;;;;;;;;;;;;12.28;75.32;100227.78;5014567;28;791;-59
2021/09/22 02:39:28;;;;;;;;;;;;;;;12.26;75.07;100223.44;5014510;28;862;-60
2021/09/22 02:41:55;;;;;;;;;;;;;;;12.30;75.32;100212.31;5014493;28;823;-60
2021/09/22 02:44:21;;;;;;;;;;;;;;;12.31;75.44;100219.47;5014463;28;837;-60
2021/09/22 02:46:49;;;;;;;;;;;;;;;12.27;75.14;100221.47;5014390;28;963;-60
2021/09/22 02:49:16;;;;;;;;;;;;;;;12.29;75.61;100221.03;5014333;28;858;-60
2021/09/22 02:51:42;;;;;;;;;;;;;;;12.33;75.21;100213.50;5014237;28;932;-59
2021/09/22 02:54:09;;;;;;;;;;;;;;;12.36;75.05;100210.72;5014087;28;1266;-60
2021/09/22 02:56:36;;;;;;;;;;;;;;;12.33;74.98;100207.94;5014096;28;1906;-60
2021/09/22 02:59:02;;;;;;;;;;;;;;;12.30;74.51;100206.78;5014029;28;838;-60
2021/09/22 03:01:29;;;;;;;;;;;;;;;12.30;74.32;100206.00;5014075;28;874;-60
2021/09/22 03:03:55;;;;;;;;;;;;;;;12.28;74.52;100200.84;5013989;28;860;-60
2021/09/22 03:06:22;;;;;;;;;;;;;;;12.28;74.09;100200.84;5012722;28;894;-60
2021/09/22 03:08:49;;;;;;;;;;;;;;;12.28;74.38;100200.06;5014164;28;855;-59
2021/09/22 03:11:15;;;;;;;;;;;;;;;12.26;74.64;100204.03;5013931;28;803;-60
2021/09/22 03:13:41;;;;;;;;;;;;;;;12.24;74.91;100200.88;5013782;28;851;-60
2021/09/22 03:16:08;;;;;;;;;;;;;;;12.23;75.15;100204.06;5013822;28;1875;-60
2021/09/22 03:18:35;;;;;;;;;;;;;;;12.21;75.06;100193.38;5013714;28;902;-60
2021/09/22 03:21:02;;;;;;;;;;;;;;;12.18;75.58;100185.06;5013731;28;803;-60
2021/09/22 03:23:29;;;;;;;;;;;;;;;12.18;75.64;100190.63;5013944;28;823;-59
2021/09/22 03:25:56;;;;;;;;;;;;;;;12.15;75.99;100192.22;5013597;28;850;-60
2021/09/22 03:28:23;;;;;;;;;;;;;;;12.14;76.02;100189.84;5013570;28;845;-59
2021/09/22 03:30:49;;;;;;;;;;;;;;;12.11;75.78;100183.13;5013579;28;810;-60
2021/09/22 03:33:16;;;;;;;;;;;;;;;12.12;76.05;100192.22;5013700;28;871;-60
2021/09/22 03:35:43;;;;;;;;;;;;;;;12.11;76.40;100190.66;5013643;28;1941;-60
2021/09/22 03:38:10;;;;;;;;;;;;;;;12.12;76.51;100181.13;5013465;28;808;-60
2021/09/22 03:40:38;;;;;;;;;;;;;;;12.11;76.33;100188.66;5013296;28;839;-60
2021/09/22 03:43:05;;;;;;;;;;;;;;;12.11;76.55;100182.34;4995753;28;1221;-59
2021/09/22 03:45:32;;;;;;;;;;;;;;;12.11;76.23;100185.13;5013310;28;826;-60
2021/09/22 03:47:59;;;;;;;;;;;;;;;12.11;76.56;100188.66;4995546;28;1047;-60
2021/09/22 03:50:26;;;;;;;;;;;;;;;12.14;76.42;100189.84;5013479;28;812;-60
2021/09/22 03:52:52;;;;;;;;;;;;;;;12.16;76.17;100193.00;5013133;28;878;-60
2021/09/22 03:55:19;;;;;;;;;;;;;;;12.16;76.52;100193.81;5012798;28;1902;-60
2021/09/22 03:57:46;;;;;;;;;;;;;;;12.18;76.28;100183.13;5013189;28;827;-60
2021/09/22 04:00:12;;;;;;;;;;;;;;;12.19;76.33;100184.69;5012908;28;815;-60
2021/09/22 04:02:39;;;;;;;;;;;;;;;12.19;76.33;100187.44;5012956;28;858;-60
2021/09/22 04:05:07;;;;;;;;;;;;;;;12.20;76.29;100185.47;5012902;28;843;-59
2021/09/22 04:07:33;;;;;;;;;;;;;;;12.20;76.41;100191.00;5012894;28;827;-60
2021/09/22 04:10:00;;;;;;;;;;;;;;;12.19;76.60;100192.22;5012764;28;917;-60
2021/09/22 04:12:27;;;;;;;;;;;;;;;12.17;76.76;100189.06;5012813;28;815;-60
2021/09/22 04:14:54;;;;;;;;;;;;;;;12.20;76.43;100200.09;5012601;28;1890;-60
2021/09/22 04:17:21;;;;;;;;;;;;;;;12.26;76.37;100204.03;5012665;28;843;-60
2021/09/22 04:19:48;;;;;;;;;;;;;;;12.28;76.13;100192.53;5012626;28;839;-60
2021/09/22 04:22:15;;;;;;;;;;;;;;;12.39;75.63;100192.47;5012555;28;823;-60
2021/09/22 04:24:42;;;;;;;;;;;;;;;12.54;74.31;100188.41;5012598;28;803;-60
2021/09/22 04:27:09;;;;;;;;;;;;;;;12.62;74.19;100194.72;5012505;28;803;-60
2021/09/22 04:29:36;;;;;;;;;;;;;;;12.61;73.73;100185.63;5012357;28;857;-59
2021/09/22 04:32:03;;;;;;;;;;;;;;;12.61;73.88;100190.34;5012526;28;905;-60
2021/09/22 04:34:30;;;;;;;;;;;;;;;12.59;73.98;100181.66;4994704;28;1951;-60
2021/09/22 04:36:57;;;;;;;;;;;;;;;12.57;74.23;100189.59;5012305;28;842;-60
2021/09/22 04:39:24;;;;;;;;;;;;;;;12.55;74.26;100183.69;5012510;28;838;-59
2021/09/22 04:41:51;;;;;;;;;;;;;;;12.57;73.96;100184.06;5012255;28;839;-59
2021/09/22 04:44:17;;;;;;;;;;;;;;;12.60;73.34;100186.78;5012500;28;799;-59
2021/09/22 04:46:45;;;;;;;;;;;;;;;12.69;72.17;100185.53;4994585;28;1011;-59
2021/09/22 04:49:12;;;;;;;;;;;;;;;12.74;70.76;100185.91;5012127;28;876;-60
2021/09/22 04:51:38;;;;;;;;;;;;;;;12.84;70.59;100184.22;5012122;28;808;-60
2021/09/22 04:54:05;;;;;;;;;;;;;;;12.86;70.81;100181.84;5011916;28;1321;-59
2021/09/22 04:56:31;;;;;;;;;;;;;;;12.86;71.38;100182.63;4994381;28;2003;-59
2021/09/22 04:58:59;;;;;;;;;;;;;;;12.85;71.68;100178.28;5011950;28;815;-60
2021/09/22 05:01:25;;;;;;;;;;;;;;;12.85;71.78;100183.84;5012042;28;898;-60
2021/09/22 05:03:52;;;;;;;;;;;;;;;12.86;71.81;100168.75;5011947;28;873;-59
2021/09/22 05:06:20;;;;;;;;;;;;;;;12.87;72.18;100170.34;5011936;28;819;-60
2021/09/22 05:08:47;;;;;;;;;;;;;;;12.90;72.42;100167.94;5011932;28;894;-60
2021/09/22 05:19:19;;;;;;;;;;;;;;;13.12;71.58;100177.69;5031698;28;676;-59
2021/09/22 05:21:46;;;;;;;;;;;;;;;13.11;71.91;100178.84;5031583;28;881;-59
2021/09/22 05:24:13;;;;;;;;;;;;;;;13.08;72.19;100179.69;5031562;28;930;-59
2021/09/22 05:26:40;;;;;;;;;;;;;;;13.11;72.05;100184.41;5031494;28;861;-59
2021/09/22 05:29:07;;;;;;;;;;;;;;;13.13;72.26;100184.78;5032754;28;862;-59
2021/09/22 05:31:32;;;;;;;;;;;;;;;13.14;72.50;100178.03;5035604;28;856;-59
2021/09/22 05:33:59;;;;;;;;;;;;;;;13.14;72.58;100180.00;5035578;28;818;-59
2021/09/22 05:36:26;;;;;;;;;;;;;;;13.14;73.10;100178.03;5035494;28;1918;-59
2021/09/22 05:38:53;;;;;;;;;;;;;;;13.17;73.15;100180.00;5035493;28;822;-59
2021/09/22 05:41:20;;;;;;;;;;;;;;;13.23;73.04;100186.69;5035451;28;846;-59
2021/09/22 05:43:46;;;;;;;;;;;;;;;13.27;72.95;100187.44;5035510;28;834;-59
2021/09/22 05:46:13;;;;;;;;;;;;;;;13.27;73.05;100187.44;5035179;28;833;-59
2021/09/22 05:48:39;;;;;;;;;;;;;;;13.32;72.99;100185.44;5035300;28;806;-59
2021/09/22 05:51:06;;;;;;;;;;;;;;;13.35;73.21;100181.84;5035385;28;814;-59
2021/09/22 05:53:33;;;;;;;;;;;;;;;13.36;73.18;100188.97;5035248;28;837;-59
2021/09/22 05:55:59;;;;;;;;;;;;;;;13.36;73.09;100186.19;5035491;28;1957;-59
2021/09/22 05:58:27;;;;;;;;;;;;;;;13.36;73.23;100183.41;5035570;28;830;-59
2021/09/22 06:00:53;;;;;;;;;;;;;;;13.36;73.30;100183.41;5035319;28;848;-59
2021/09/22 06:03:20;;;;;;;;;;;;;;;13.37;73.18;100184.97;5035235;28;807;-59
2021/09/22 06:05:47;;;;;;;;;;;;;;;13.38;73.41;100181.81;5035361;28;873;-59
2021/09/22 06:08:14;;;;;;;;;;;;;;;13.40;73.29;100176.63;5035142;28;850;-59
2021/09/22 06:10:43;;;;;;;;;;;;;;;13.43;73.46;100169.44;5035356;28;814;-59
2021/09/22 06:13:10;;;;;;;;;;;;;;;13.45;73.43;100167.84;5034894;28;894;-59
2021/09/22 06:15:37;;;;;;;;;;;;;;;13.45;73.72;100167.06;5034557;28;1947;-59
2021/09/22 06:18:04;;;;;;;;;;;;;;;13.47;73.68;100168.22;5034629;28;1226;-59
2021/09/22 06:20:31;;;;;;;;;;;;;;;13.52;73.55;100153.06;5034741;28;842;-59
2021/09/22 06:22:58;;;;;;;;;;;;;;;13.57;73.53;100162.94;5034620;28;841;-59
2021/09/22 06:25:24;;;;;;;;;;;;;;;13.64;73.56;100158.09;5034606;28;827;-59
2021/09/22 06:27:51;;;;;;;;;;;;;;;13.76;73.33;100156.78;5034669;28;859;-59
2021/09/22 06:30:19;;;;;;;;;;;;;;;13.88;73.11;100163.75;5034564;28;807;-59
2021/09/22 06:32:47;;;;;;;;;;;;;;;14.00;73.02;100154.88;5034451;28;855;-59
2021/09/22 06:35:14;;;;;;;;;;;;;;;14.06;72.64;100164.34;5034363;28;1975;-59
2021/09/22 06:37:41;;;;;;;;;;;;;;;14.10;72.42;100155.94;5016559;28;1164;-59
2021/09/22 06:40:08;;;;;;;;;;;;;;;14.18;72.00;100151.84;5034036;28;818;-59
2021/09/22 06:42:35;;;;;;;;;;;;;;;14.30;71.72;100154.06;5034564;28;823;-59
2021/09/22 06:45:02;;;;;;;;;;;;;;;14.43;71.24;100154.28;5034161;28;878;-59
2021/09/22 06:47:29;;;;;;;;;;;;;;;14.60;70.84;100151.69;5034184;28;811;-59
2021/09/22 06:49:55;;;;;;;;;;;;;;;14.82;70.23;100157.66;5034128;28;862;-59
2021/09/22 06:52:23;;;;;;;;;;;;;;;15.01;69.37;100151.38;5033975;28;873;-59
2021/09/22 06:54:49;;;;;;;;;;;;;;;15.17;68.70;100156.28;5034031;28;1957;-59
2021/09/22 06:57:16;;;;;;;;;;;;;;;15.29;67.98;100152.84;5034045;28;807;-59
2021/09/22 06:59:43;;;;;;;;;;;;;;;15.39;67.39;100155.88;5033915;28;929;-59
2021/09/22 07:02:09;;;;;;;;;;;;;;;15.53;67.04;100158.38;5033895;28;803;-59
2021/09/22 07:04:35;;;;;;;;;;;;;;;15.59;66.45;100156.66;5033947;28;823;-59
2021/09/22 07:07:02;;;;;;;;;;;;;;;15.56;66.09;100159.53;5034043;28;811;-59
2021/09/22 07:09:30;;;;;;;;;;;;;;;15.46;65.72;100169.66;5034027;28;875;-59
2021/09/22 07:11:57;;;;;;;;;;;;;;;15.45;65.85;100162.53;5034020;28;834;-59
2021/09/22 07:14:24;;;;;;;;;;;;;;;15.42;65.77;100166.94;5033774;28;885;-59
2021/09/22 07:16:51;;;;;;;;;;;;;;;15.33;65.74;100166.72;5033900;28;1147;-59
2021/09/22 07:19:17;;;;;;;;;;;;;;;15.26;65.76;100167.63;5033769;28;846;-59
2021/09/22 07:21:44;;;;;;;;;;;;;;;15.35;65.36;100167.06;5033876;28;866;-59
2021/09/22 07:24:11;;;;;;;;;;;;;;;15.60;64.90;100157.47;5033789;28;846;-59
2021/09/22 07:26:38;;;;;;;;;;;;;;;15.82;64.41;100158.63;5033634;28;814;-59
2021/09/22 07:29:07;;;;;;;;;;;;;;;16.10;63.46;100157.22;5033379;28;845;-59
2021/09/22 07:31:35;;;;;;;;;;;;;;;16.28;62.53;100148.47;5033418;28;905;-60
2021/09/22 07:34:02;;;;;;;;;;;;;;;16.62;62.01;100157.63;5033334;28;869;-59
2021/09/22 07:36:29;;;;;;;;;;;;;;;17.00;61.13;100151.56;5033376;28;1963;-59
2021/09/22 07:38:55;;;;;;;;;;;;;;;17.27;58.28;100140.84;5033408;28;830;-59
2021/09/22 07:41:22;;;;;;;;;;;;;;;17.72;56.96;100133.63;5033219;28;925;-61
2021/09/22 07:43:49;;;;;;;;;;;;;;;18.08;51.84;100129.81;5033289;28;878;-60
2021/09/22 07:46:15;;;;;;;;;;;;;;;18.20;49.89;100131.03;5033370;28;830;-60
2021/09/22 07:48:42;;;;;;;;;;;;;;;18.34;49.93;100134.16;5033165;28;955;-60
2021/09/22 08:03:19;;;;;;;;;;;;;;;17.07;48.88;100099.09;5033245;28;656;-60
2021/09/22 08:05:45;;;;;;;;;;;;;;;16.86;49.86;100103.25;5032850;28;846;-60
2021/09/22 08:08:13;;;;;;;;;;;;;;;16.63;50.13;100100.63;5032724;28;884;-60
2021/09/22 08:10:41;;;;;;;;;;;;;;;16.40;50.61;100105.13;5014970;28;1336;-60
2021/09/22 08:13:08;;;;;;;;;;;;;;;16.36;50.67;100098.09;5032590;28;838;-60
2021/09/22 08:15:35;;;;;;;;;;;;;;;16.38;50.63;100093.63;5032535;28;1953;-59
2021/09/22 08:18:03;;;;;;;;;;;;;;;16.49;50.80;100087.78;5032410;28;1094;-60
2021/09/22 08:20:30;;;;;;;;;;;;;;;16.67;50.81;100085.34;5032408;28;834;-60
2021/09/22 08:22:57;;;;;;;;;;;;;;;16.79;50.87;100081.06;5032347;28;807;-60
2021/09/22 08:25:24;;;;;;;;;;;;;;;16.81;50.93;100084.22;5032306;28;834;-60
2021/09/22 08:27:51;;;;;;;;;;;;;;;16.83;50.98;100081.78;5032549;28;843;-60
2021/09/22 08:30:18;;;;;;;;;;;;;;;16.78;49.72;100078.72;5032173;28;846;-60
2021/09/22 08:32:45;;;;;;;;;;;;;;;16.66;49.71;100081.00;5032299;28;823;-60
2021/09/22 08:35:12;;;;;;;;;;;;;;;16.70;50.05;100078.88;5031973;28;1926;-59
2021/09/22 08:37:39;;;;;;;;;;;;;;;16.78;50.64;100073.13;5032094;28;787;-59
2021/09/22 08:40:07;;;;;;;;;;;;;;;16.82;50.55;100080.22;5014271;28;1193;-60
2021/09/22 08:42:35;;;;;;;;;;;;;;;16.76;50.31;100079.16;5014646;28;1221;-59
2021/09/22 08:45:03;;;;;;;;;;;;;;;16.63;50.07;100075.50;5032190;28;839;-60
2021/09/22 08:47:29;;;;;;;;;;;;;;;16.74;50.08;100067.63;5032183;28;874;-60
2021/09/22 08:49:56;;;;;;;;;;;;;;;16.83;50.13;100059.44;5032364;28;791;-60
2021/09/22 08:52:23;;;;;;;;;;;;;;;17.12;49.88;100056.66;5032211;28;815;-60
2021/09/22 08:54:50;;;;;;;;;;;;;;;17.26;49.17;100063.06;5031941;28;1890;-60
2021/09/22 08:57:17;;;;;;;;;;;;;;;17.09;49.13;100071.53;5032154;28;803;-60
2021/09/22 08:59:45;;;;;;;;;;;;;;;16.88;49.22;100070.09;5032151;28;846;-60
2021/09/22 09:02:12;;;;;;;;;;;;;;;16.63;50.01;100065.13;5032239;28;826;-60
2021/09/22 09:04:40;;;;;;;;;;;;;;;16.56;50.49;100059.72;5031858;28;803;-60
2021/09/22 09:07:07;;;;;;;;;;;;;;;16.44;50.52;100060.44;5031670;28;814;-60
2021/09/22 09:09:35;;;;;;;;;;;;;;;16.47;50.61;100046.41;5031724;28;861;-60
2021/09/22 09:12:03;;;;;;;;;;;;;;;16.66;49.92;100035.56;5031483;28;814;-59
2021/09/22 09:14:33;;;;;;;;;;;;;;;16.90;49.70;100034.16;5031474;28;1894;-59
2021/09/22 09:17:01;;;;;;;;;;;;;;;17.00;49.46;100037.84;5031552;28;1239;-60
2021/09/22 09:19:28;;;;;;;;;;;;;;;16.98;49.72;100029.13;5031520;28;795;-60
2021/09/22 09:21:55;;;;;;;;;;;;;;;17.19;49.60;100027.75;5031525;28;846;-60
2021/09/22 09:24:37;;;;;;;;;;;;;;;17.51;49.01;100034.41;5031456;28;791;-59
2021/09/22 09:27:06;;;;;;;;;;;;;;;17.67;47.87;100025.19;5031486;28;819;-60
2021/09/22 09:29:33;;;;;;;;;;;;;;;17.89;47.34;100025.31;5031471;28;853;-60
2021/09/22 09:32:10;;;;;;;;;;;;;;;17.91;47.64;100029.22;5031638;28;845;-60
2021/09/22 09:34:37;;;;;;;;;;;;;;;17.50;47.79;100030.06;5031368;28;1969;-60
2021/09/22 09:37:04;;;;;;;;;;;;;;;17.26;48.83;100021.16;5031262;28;822;-60
2021/09/22 09:39:34;;;;;;;;;;;;;;;17.12;48.86;100014.00;5013597;28;1268;-59
2021/09/22 09:42:02;;;;;;;;;;;;;;;17.07;49.29;100017.31;5031189;28;819;-60
2021/09/22 09:44:30;;;;;;;;;;;;;;;17.02;49.27;100018.66;5031289;28;845;-60
2021/09/22 09:47:09;;;;;;;;;;;;;;;16.78;48.80;100012.50;5031418;28;862;-59
2021/09/22 09:49:37;;;;;;;;;;;;;;;16.73;48.54;100010.25;5031299;28;818;-59
2021/09/22 09:52:04;;;;;;;;;;;;;;;17.01;48.52;100008.72;5030721;28;850;-60
2021/09/22 09:54:32;;;;;;;;;;;;;;;17.46;47.88;100009.84;5031245;28;1890;-59
2021/09/22 09:57:15;;;;;;;;;;;;;;;17.90;47.23;99996.91;5031319;28;858;-60
2021/09/22 09:59:46;;;;;;;;;;;;;;;18.47;46.31;99991.44;5031328;28;870;-60
2021/09/22 10:02:30;;;;;;;;;;;;;;;18.90;45.40;99989.94;5031331;28;843;-60
2021/09/22 10:05:00;;;;;;;;;;;;;;;19.25;44.79;100001.09;5031351;28;846;-60
2021/09/22 10:07:29;;;;;;;;;;;;;;;19.72;44.06;100007.75;5031286;28;805;-60
2021/09/22 10:09:57;;;;;;;;;;;;;;;19.96;43.83;99996.78;5031104;28;899;-60
2021/09/22 10:12:24;;;;;;;;;;;;;;;19.99;42.87;100001.44;5030950;28;826;-60
2021/09/22 10:14:52;;;;;;;;;;;;;;;19.62;42.34;100001.28;5031638;28;1940;-60
2021/09/22 10:17:22;;;;;;;;;;;;;;;19.18;42.89;99992.94;5034754;28;1222;-60
2021/09/22 10:19:52;;;;;;;;;;;;;;;19.28;43.34;99993.78;5034664;28;882;-60
2021/09/22 10:22:18;;;;;;;;;;;;;;;19.01;42.86;99983.97;5034395;28;819;-60
2021/09/22 10:24:49;;;;;;;;;;;;;;;18.72;43.33;99981.38;5034492;28;837;-60
2021/09/22 10:27:17;;;;;;;;;;;;;;;18.49;43.17;99986.16;5016951;28;1295;-60
2021/09/22 10:29:58;;;;;;;;;;;;;;;18.69;42.84;99976.69;5034735;28;819;-60
2021/09/22 10:32:33;;;;;;;;;;;;;;;19.05;43.04;99981.03;5034598;28;863;-60
2021/09/22 10:35:20;;;;;;;;;;;;;;;19.29;42.31;99981.34;5034611;28;1914;-60
2021/09/22 10:37:48;;;;;;;;;;;;;;;19.26;42.72;99976.66;5017567;28;1315;-60
2021/09/22 10:40:17;;;;;;;;;;;;;;;19.21;42.65;99975.22;5016683;28;1315;-60
2021/09/22 10:42:45;;;;;;;;;;;;;;;18.87;42.81;99976.88;5034383;28;823;-60
2021/09/22 10:45:23;;;;;;;;;;;;;;;18.68;43.36;99972.34;5034412;28;826;-60
2021/09/22 10:47:50;;;;;;;;;;;;;;;18.44;43.48;99969.97;5034263;28;910;-60
2021/09/22 10:50:35;;;;;;;;;;;;;;;18.56;43.99;99960.75;5034511;28;870;-60
2021/09/22 10:53:23;;;;;;;;;;;;;;;18.78;43.42;99948.81;5016555;28;1287;-60
2021/09/22 10:56:09;;;;;;;;;;;;;;;18.55;42.83;99950.75;5034259;28;1977;-60
2021/09/22 10:58:49;;;;;;;;;;;;;;;18.40;42.60;99951.72;5034473;28;853;-60
2021/09/22 11:01:33;;;;;;;;;;;;;;;18.46;42.79;99950.69;5034046;28;937;-60
2021/09/22 11:04:02;;;;;;;;;;;;;;;18.80;42.63;99940.72;5034207;28;881;-60
2021/09/22 11:06:50;;;;;;;;;;;;;;;18.97;42.56;99938.50;5033995;28;815;-60
2021/09/22 11:09:20;;;;;;;;;;;;;;;18.81;42.89;99939.47;5033951;28;1276;-60
2021/09/22 11:14:31;;;;;;;;;;;;;;;18.16;44.29;99927.72;5033814;28;657;-60
2021/09/22 11:17:14;;;;;;;;;;;;;;;17.87;44.41;99930.69;5033476;28;1906;-60
2021/09/22 11:19:43;;;;;;;;;;;;;;;17.53;44.78;99917.41;5033726;28;853;-60
2021/09/22 11:22:11;;;;;;;;;;;;;;;17.44;45.21;99926.44;5033735;28;1253;-60
2021/09/22 11:24:41;;;;;;;;;;;;;;;17.39;45.69;99926.22;5033966;28;850;-60
2021/09/22 11:27:10;;;;;;;;;;;;;;;17.23;45.70;99922.31;5032636;28;938;-60
2021/09/22 11:29:49;;;;;;;;;;;;;;;17.17;45.85;99924.06;5033485;28;803;-60
2021/09/22 11:32:33;;;;;;;;;;;;;;;17.30;46.20;99916.50;5033551;28;803;-60
2021/09/22 11:35:01;;;;;;;;;;;;;;;17.62;46.04;99916.72;5033312;28;1914;-60
2021/09/22 11:37:35;;;;;;;;;;;;;;;17.92;45.23;99913.38;5033445;28;885;-60
2021/09/22 11:40:19;;;;;;;;;;;;;;;18.04;45.08;99913.78;5015693;28;1204;-60
2021/09/22 11:43:06;;;;;;;;;;;;;;;18.07;45.15;99912.88;5033479;28;815;-60
2021/09/22 11:45:38;;;;;;;;;;;;;;;17.77;45.22;99912.22;5033278;28;942;-60
2021/09/22 11:48:08;;;;;;;;;;;;;;;17.30;45.80;99908.13;5033352;28;1209;-60
2021/09/22 11:50:38;;;;;;;;;;;;;;;16.96;46.59;99919.13;5033120;28;894;-60
2021/09/22 11:53:10;;;;;;;;;;;;;;;16.73;47.49;99915.38;5033026;28;838;-60
2021/09/22 11:55:39;;;;;;;;;;;;;;;16.58;47.75;99911.41;5033424;28;1953;-60
2021/09/22 11:58:11;;;;;;;;;;;;;;;16.44;48.07;99915.38;5033012;28;1273;-60
2021/09/22 12:00:39;;;;;;;;;;;;;;;16.32;47.85;99916.88;5032839;28;862;-60
2021/09/22 12:03:06;;;;;;;;;;;;;;;16.27;47.89;99909.03;5032902;28;875;-60
2021/09/22 12:05:33;;;;;;;;;;;;;;;16.23;47.71;99906.34;5032912;28;814;-60
2021/09/22 12:08:01;;;;;;;;;;;;;;;16.27;47.77;99901.47;5032772;28;885;-60
2021/09/22 12:10:28;;;;;;;;;;;;;;;16.36;47.99;99900.81;5032707;28;1273;-60
2021/09/22 12:13:00;;;;;;;;;;;;;;;16.55;47.77;99896.31;5032648;28;1200;-59
2021/09/22 12:15:28;;;;;;;;;;;;;;;16.75;47.81;99887.81;5032520;28;1944;-60
2021/09/22 12:17:55;;;;;;;;;;;;;;;16.94;47.46;99886.88;5020847;28;1286;-60
2021/09/22 12:20:23;;;;;;;;;;;;;;;17.20;46.98;99881.31;5032732;28;885;-59
2021/09/22 12:22:58;;;;;;;;;;;;;;;17.42;46.75;99873.03;5032629;28;893;-60
2021/09/22 12:25:26;;;;;;;;;;;;;;;17.66;45.76;99864.28;5032814;28;846;-60
2021/09/22 12:27:54;;;;;;;;;;;;;;;17.94;45.31;99868.97;5032368;28;880;-60
2021/09/22 12:30:37;;;;;;;;;;;;;;;18.19;44.57;99866.53;5032376;28;834;-60
2021/09/22 12:33:08;;;;;;;;;;;;;;;18.08;43.38;99864.09;5032227;28;862;-60
2021/09/22 12:35:38;;;;;;;;;;;;;;;17.89;43.29;99868.75;5032117;28;1914;-60
2021/09/22 12:38:07;;;;;;;;;;;;;;;17.74;43.05;99869.19;5031845;28;857;-60
2021/09/22 12:40:44;;;;;;;;;;;;;;;17.62;43.18;99866.41;5032320;28;866;-60
2021/09/22 12:43:25;;;;;;;;;;;;;;;17.42;43.02;99872.25;5032018;28;869;-60
2021/09/22 12:46:12;;;;;;;;;;;;;;;16.96;42.56;99872.44;5032051;28;869;-60
2021/09/22 12:48:40;;;;;;;;;;;;;;;16.58;42.95;99869.53;5031949;28;1298;-59
2021/09/22 12:51:16;;;;;;;;;;;;;;;16.36;43.73;99875.72;5031993;28;845;-60
2021/09/22 12:53:44;;;;;;;;;;;;;;;16.29;44.11;99884.28;5031923;28;786;-60
2021/09/22 12:56:12;;;;;;;;;;;;;;;16.22;44.05;99881.72;5031838;28;1894;-60
2021/09/22 12:58:39;;;;;;;;;;;;;;;16.14;44.28;99878.31;5031819;28;815;-59
2021/09/22 13:01:08;;;;;;;;;;;;;;;16.09;44.34;99874.06;5031749;28;802;-60
2021/09/22 13:03:35;;;;;;;;;;;;;;;16.06;43.99;99874.91;5031746;28;865;-60
2021/09/22 13:18:13;;;;;;;;;;;;;;;15.55;43.91;99868.22;5031526;28;1271;-60
2021/09/22 13:20:40;;;;;;;;;;;;;;;15.49;43.94;99868.75;5013881;28;1335;-60
2021/09/22 13:23:07;;;;;;;;;;;;;;;15.50;44.14;99875.13;5031473;28;795;-60
2021/09/22 13:28:37;;;;;;;;;;;;;;;15.41;43.97;99863.81;5031784;28;780;-60
2021/09/22 13:31:03;;;;;;;;;;;;;;;15.37;44.40;99868.66;5031449;28;834;-59
2021/09/22 13:33:31;;;;;;;;;;;;;;;15.24;43.20;99874.13;5031417;28;873;-60
2021/09/22 13:35:58;;;;;;;;;;;;;;;15.20;43.33;99856.72;5031333;28;1981;-60
2021/09/22 13:38:24;;;;;;;;;;;;;;;15.16;43.39;99862.38;5031612;28;811;-60
2021/09/22 13:40:51;;;;;;;;;;;;;;;15.13;42.96;99856.88;5031407;28;823;-60